createdAt,value
2022-11-24T00:01:35.835Z,7.18
2022-11-24T00:04:06.314Z,7.38
2022-11-24T00:06:36.962Z,7.68
2022-11-24T00:09:06.928Z,7.10
2022-11-24T00:11:37.988Z,6.32
2022-11-24T00:14:08.347Z,7.28
2022-11-24T00:16:40.738Z,7.22
2022-11-24T00:19:18.401Z,7.23
2022-11-24T00:21:48.156Z,7.43
2022-11-24T00:24:18.644Z,6.82
2022-11-24T00:26:47.614Z,8.02
2022-11-24T00:29:17.304Z,7.82
2022-11-24T00:31:47.382Z,8.25
2022-11-24T00:34:16.531Z,8.07
2022-11-24T00:36:45.302Z,8.18
2022-11-24T00:39:17.574Z,9.40
2022-11-24T00:41:46.630Z,9.15
2022-11-24T00:44:15.518Z,8.80
2022-11-24T00:46:43.977Z,8.20
2022-11-24T00:49:14.222Z,8.23
2022-11-24T00:51:43.011Z,9.38
2022-11-24T00:54:12.173Z,8.73
2022-11-24T00:56:41.012Z,8.48
2022-11-24T00:59:09.530Z,9.18
2022-11-24T01:01:38.205Z,8.85
2022-11-24T01:04:08.114Z,8.80
2022-11-24T01:06:38.157Z,8.75
2022-11-24T01:09:06.839Z,8.30
2022-11-24T01:11:51.036Z,8.10
2022-11-24T01:14:19.784Z,8.32
2022-11-24T01:16:48.072Z,8.07
2022-11-24T01:19:16.878Z,8.05
2022-11-24T01:21:48.315Z,7.53
2022-11-24T01:24:20.244Z,8.63
2022-11-24T01:26:50.567Z,8.77
2022-11-24T01:29:19.226Z,8.35
2022-11-24T01:31:47.653Z,7.82
2022-11-24T01:34:16.888Z,7.90
2022-11-24T01:36:49.672Z,8.10
2022-11-24T01:39:18.355Z,7.22
2022-11-24T01:41:46.695Z,7.50
2022-11-24T01:44:25.168Z,8.05
2022-11-24T01:46:58.223Z,7.55
2022-11-24T01:49:31.928Z,8.40
2022-11-24T01:52:10.774Z,8.27
2022-11-24T01:54:45.400Z,8.13
2022-11-24T01:57:32.659Z,8.20
2022-11-24T02:00:06.654Z,8.10
2022-11-24T02:02:35.328Z,7.97
2022-11-24T02:05:10.302Z,8.05
2022-11-24T02:07:41.605Z,8.40
2022-11-24T02:10:15.362Z,7.50
2022-11-24T02:45:46.019Z,6.15
2022-11-24T02:48:17.656Z,6.75
2022-11-24T02:50:46.136Z,6.53
2022-11-24T02:53:15.237Z,7.30
2022-11-24T02:55:46.676Z,6.30
2022-11-24T02:58:16.473Z,6.45
2022-11-24T03:00:49.616Z,6.45
2022-11-24T03:03:19.770Z,7.13
2022-11-24T03:05:48.161Z,6.80
2022-11-24T03:08:16.582Z,6.53
2022-11-24T03:10:45.260Z,6.38
2022-11-24T03:13:14.096Z,6.60
2022-11-24T03:15:47.198Z,6.78
2022-11-24T03:20:44.470Z,5.78
2022-11-24T03:23:15.831Z,6.28
2022-11-24T03:25:44.379Z,6.63
2022-11-24T03:28:13.613Z,6.63
2022-11-24T03:30:42.039Z,6.97
2022-11-24T03:33:13.528Z,6.90
2022-11-24T03:35:41.945Z,6.75
2022-11-24T03:38:10.726Z,6.97
2022-11-24T03:40:39.126Z,6.82
2022-11-24T03:43:08.719Z,7.45
2022-11-24T03:45:52.383Z,6.90
2022-11-24T03:48:22.893Z,7.00
2022-11-24T03:50:56.576Z,6.93
2022-11-24T03:53:29.340Z,6.78
2022-11-24T03:56:00.756Z,6.80
2022-11-24T03:58:30.863Z,7.35
2022-11-24T04:05:10.026Z,6.18
2022-11-24T04:07:38.802Z,6.72
2022-11-24T04:10:08.522Z,6.68
2022-11-24T04:12:45.043Z,7.20
2022-11-24T04:15:14.733Z,7.03
2022-11-24T04:17:43.675Z,7.47
2022-11-24T04:20:15.886Z,6.88
2022-11-24T04:22:44.685Z,6.78
2022-11-24T04:25:13.268Z,7.38
2022-11-24T04:27:41.674Z,6.88
2022-11-24T04:30:11.174Z,7.10
2022-11-24T04:32:39.814Z,6.95
2022-11-24T04:35:08.876Z,7.05
2022-11-24T04:37:38.800Z,6.72
2022-11-24T04:40:09.744Z,6.95
2022-11-24T04:42:38.248Z,6.18
2022-11-24T04:45:09.224Z,6.20
2022-11-24T04:47:39.487Z,7.10
2022-11-24T04:50:09.091Z,6.85
2022-11-24T04:52:38.879Z,7.00
2022-11-24T04:55:08.302Z,8.70
2022-11-24T04:57:37.006Z,7.00
2022-11-24T05:00:06.439Z,6.43
2022-11-24T05:02:35.347Z,7.25
2022-11-24T05:05:05.566Z,7.03
2022-11-24T05:07:34.832Z,7.15
2022-11-24T05:10:22.266Z,6.93
2022-11-24T05:12:56.794Z,7.20
2022-11-24T05:15:25.345Z,7.50
2022-11-24T05:17:54.445Z,6.97
2022-11-24T05:20:25.067Z,6.90
2022-11-24T05:22:53.554Z,6.80
2022-11-24T05:25:23.253Z,6.93
2022-11-24T05:27:51.712Z,7.05
2022-11-24T05:30:20.348Z,7.05
2022-11-24T05:32:52.143Z,6.47
2022-11-24T05:35:26.684Z,6.60
2022-11-24T05:37:55.259Z,6.43
2022-11-24T05:40:27.075Z,6.38
2022-11-24T05:42:55.340Z,6.40
2022-11-24T05:45:24.157Z,5.95
2022-11-24T05:47:53.293Z,6.95
2022-11-24T05:50:24.174Z,6.20
2022-11-24T05:52:55.516Z,6.65
2022-11-24T05:55:25.370Z,6.72
2022-11-24T05:58:00.077Z,7.28
2022-11-24T06:00:29.153Z,5.90
2022-11-24T06:02:59.034Z,6.07
2022-11-24T06:05:30.261Z,6.63
2022-11-24T06:08:01.253Z,6.43
2022-11-24T06:10:31.597Z,5.95
2022-11-24T06:13:00.174Z,6.25
2022-11-24T06:15:28.750Z,6.30
2022-11-24T06:17:57.557Z,6.00
2022-11-24T06:20:32.273Z,5.90
2022-11-24T06:23:04.036Z,5.32
2022-11-24T06:25:34.146Z,5.25
2022-11-24T06:28:06.880Z,5.20
2022-11-24T06:30:36.076Z,5.20
2022-11-24T06:33:05.210Z,5.03
2022-11-24T06:35:33.962Z,5.55
2022-11-24T06:38:02.426Z,5.63
2022-11-24T06:40:31.228Z,31.00
2022-11-24T06:43:01.502Z,8.18
2022-11-24T06:45:30.878Z,6.25
2022-11-24T06:47:59.268Z,4.65
2022-11-24T06:50:33.288Z,4.65
2022-11-24T06:53:02.380Z,5.20
2022-11-24T06:55:30.724Z,4.90
2022-11-24T06:58:01.091Z,4.80
2022-11-24T07:00:32.171Z,4.57
2022-11-24T07:03:01.014Z,5.60
2022-11-24T07:05:29.718Z,4.30
2022-11-24T07:08:00.259Z,4.45
2022-11-24T07:10:29.438Z,4.70
2022-11-24T07:12:57.909Z,4.72
2022-11-24T07:15:30.049Z,4.68
2022-11-24T07:17:59.360Z,4.95
2022-11-24T07:20:27.813Z,5.43
2022-11-24T07:22:57.994Z,6.07
2022-11-24T07:25:26.440Z,4.78
2022-11-24T07:27:58.564Z,5.05
2022-11-24T07:30:29.730Z,4.00
2022-11-24T07:33:00.761Z,4.40
2022-11-24T07:35:29.783Z,4.45
2022-11-24T07:37:58.152Z,4.15
2022-11-24T07:40:28.027Z,4.40
2022-11-24T07:42:57.575Z,3.72
2022-11-24T07:45:27.440Z,3.85
2022-11-24T07:47:57.227Z,4.47
2022-11-24T07:50:25.488Z,4.18
2022-11-24T07:52:54.294Z,3.72
2022-11-24T07:55:23.160Z,4.50
2022-11-24T07:57:51.809Z,3.92
2022-11-24T08:00:21.569Z,4.55
2022-11-24T08:02:51.408Z,4.32
2022-11-24T08:05:19.782Z,4.05
2022-11-24T08:07:49.440Z,4.20
2022-11-24T08:10:18.855Z,4.40
2022-11-24T08:12:47.312Z,4.00
2022-11-24T08:15:16.687Z,4.07
2022-11-24T08:17:45.014Z,4.50
2022-11-24T08:20:14.929Z,3.70
2022-11-24T08:22:43.497Z,4.53
2022-11-24T08:25:15.629Z,4.22
2022-11-24T08:27:45.216Z,3.85
2022-11-24T08:30:14.870Z,4.43
2022-11-24T08:32:43.397Z,3.83
2022-11-24T08:35:14.270Z,4.47
2022-11-24T08:37:45.538Z,4.30
2022-11-24T08:40:15.062Z,4.25
2022-11-24T08:42:43.721Z,4.43
2022-11-24T08:45:20.797Z,5.05
2022-11-24T08:47:54.180Z,4.10
2022-11-24T08:50:22.854Z,4.18
2022-11-24T08:52:53.654Z,4.47
2022-11-24T08:55:23.417Z,6.30
2022-11-24T08:57:51.860Z,4.10
2022-11-24T09:00:26.458Z,4.28
2022-11-24T09:02:59.830Z,4.68
2022-11-24T09:08:18.135Z,4.05
2022-11-24T09:10:46.766Z,4.45
2022-11-24T09:13:15.963Z,4.45
2022-11-24T09:15:44.922Z,4.30
2022-11-24T09:18:13.349Z,4.25
2022-11-24T09:20:41.904Z,4.38
2022-11-24T09:23:10.370Z,4.00
2022-11-24T09:25:40.765Z,4.10
2022-11-24T09:28:09.054Z,4.10
2022-11-24T09:30:37.650Z,4.05
2022-11-24T09:33:07.089Z,3.95
2022-11-24T09:35:38.433Z,3.92
2022-11-24T09:38:07.217Z,3.75
2022-11-24T09:40:37.200Z,3.33
2022-11-24T09:43:13.988Z,3.38
2022-11-24T09:46:05.099Z,2.85
2022-11-24T09:48:37.631Z,3.17
2022-11-24T09:51:06.726Z,3.10
2022-11-24T09:53:40.370Z,3.38
2022-11-24T09:56:21.199Z,3.25
2022-11-24T09:58:53.738Z,2.45
2022-11-24T10:01:25.708Z,2.25
2022-11-24T10:03:56.946Z,2.47
2022-11-24T10:06:30.635Z,2.15
2022-11-24T10:09:25.698Z,2.35
2022-11-24T10:12:04.007Z,2.03
2022-11-24T10:15:06.682Z,1.85
2022-11-24T10:17:53.201Z,2.00
2022-11-24T10:20:29.433Z,1.50
2022-11-24T10:23:08.803Z,1.92
2022-11-24T10:25:46.914Z,1.30
2022-11-24T10:28:18.559Z,1.25
2022-11-24T10:30:50.172Z,1.67
2022-11-24T10:33:28.785Z,1.55
2022-11-24T10:36:05.713Z,1.45
2022-11-24T10:38:38.443Z,1.35
2022-11-24T10:41:10.111Z,1.67
2022-11-24T10:43:43.549Z,1.83
2022-11-24T10:46:18.084Z,1.80
2022-11-24T10:48:51.228Z,1.67
2022-11-24T10:52:10.527Z,1.80
2022-11-24T10:54:56.052Z,1.48
2022-11-24T10:57:32.538Z,1.33
2022-11-24T11:00:06.372Z,1.83
2022-11-24T11:02:38.257Z,1.50
2022-11-24T11:05:42.286Z,1.65
2022-11-24T11:08:33.137Z,1.00
2022-11-24T11:11:16.508Z,1.52
2022-11-24T11:14:00.050Z,1.40
2022-11-24T11:16:38.262Z,1.70
2022-11-24T11:19:56.861Z,1.65
2022-11-24T11:22:28.350Z,1.63
2022-11-24T11:25:07.298Z,1.80
2022-11-24T11:27:35.637Z,1.40
2022-11-24T11:36:15.992Z,1.55
2022-11-24T11:38:45.480Z,1.92
2022-11-24T11:41:21.807Z,1.63
2022-11-24T11:43:58.804Z,1.50
2022-11-24T11:46:30.777Z,1.58
2022-11-24T11:49:00.682Z,1.85
2022-11-24T11:51:43.387Z,1.40
2022-11-24T11:54:19.851Z,2.30
2022-11-24T11:56:51.357Z,1.88
2022-11-24T11:59:53.497Z,2.00
2022-11-24T12:03:07.600Z,1.77
2022-11-24T12:05:49.249Z,1.60
2022-11-24T12:08:49.474Z,1.48
2022-11-24T12:11:28.245Z,1.45
2022-11-24T12:14:18.315Z,1.45
2022-11-24T12:16:57.029Z,1.55
2022-11-24T12:19:42.871Z,1.58
2022-11-24T12:22:21.284Z,1.33
2022-11-24T12:24:59.258Z,2.05
2022-11-24T12:27:43.051Z,1.58
2022-11-24T12:30:15.954Z,1.23
2022-11-24T12:33:10.071Z,1.23
2022-11-24T12:35:41.908Z,1.65
2022-11-24T12:38:25.875Z,1.30
2022-11-24T12:44:21.075Z,1.40
2022-11-24T12:46:58.593Z,1.48
2022-11-24T12:49:35.933Z,1.67
2022-11-24T12:52:14.605Z,1.33
2022-11-24T12:54:45.920Z,1.65
2022-11-24T12:57:21.219Z,1.80
2022-11-24T12:59:59.599Z,1.20
2022-11-24T13:02:38.017Z,1.40
2022-11-24T13:05:21.452Z,1.35
2022-11-24T13:07:55.493Z,1.30
2022-11-24T13:10:54.732Z,1.05
2022-11-24T13:13:47.948Z,1.40
2022-11-24T13:16:36.228Z,1.40
2022-11-24T13:19:15.134Z,1.73
2022-11-24T13:22:02.381Z,1.75
2022-11-24T13:24:33.948Z,1.25
2022-11-24T13:27:42.346Z,1.80
2022-11-24T13:30:51.775Z,1.85
2022-11-24T13:33:32.105Z,1.10
2022-11-24T13:36:32.372Z,1.17
2022-11-24T13:39:01.894Z,1.20
2022-11-24T13:42:10.557Z,1.15
2022-11-24T13:45:01.842Z,1.45
2022-11-24T13:47:35.926Z,1.50
2022-11-24T13:50:08.375Z,1.20
2022-11-24T13:52:46.356Z,1.60
2022-11-24T13:55:31.209Z,1.25
2022-11-24T13:58:03.859Z,1.38
2022-11-24T14:00:35.205Z,0.90
2022-11-24T14:03:13.790Z,1.23
2022-11-24T14:05:49.729Z,1.20
2022-11-24T14:08:25.547Z,1.45
2022-11-24T14:10:55.299Z,1.17
2022-11-24T14:13:33.100Z,2.10
2022-11-24T14:16:06.297Z,1.20
2022-11-24T14:18:36.111Z,1.42
2022-11-24T14:21:28.507Z,2.10
2022-11-24T14:24:00.887Z,2.15
2022-11-24T14:26:34.433Z,2.17
2022-11-24T14:29:07.966Z,1.80
2022-11-24T14:31:36.381Z,1.58
2022-11-24T14:34:21.300Z,1.83
2022-11-24T14:36:55.212Z,1.30
2022-11-24T14:39:26.543Z,1.52
2022-11-24T14:42:00.165Z,1.63
2022-11-24T14:44:33.588Z,1.52
2022-11-24T14:47:09.435Z,1.90
2022-11-24T14:49:42.892Z,1.73
2022-11-24T14:52:15.949Z,3.40
2022-11-24T14:54:49.665Z,4.55
2022-11-24T14:57:27.484Z,3.95
2022-11-24T15:00:29.143Z,2.20
2022-11-24T15:03:14.415Z,2.25
2022-11-24T15:05:54.691Z,2.10
2022-11-24T15:08:29.482Z,3.42
2022-11-24T15:11:01.452Z,3.85
2022-11-24T15:13:32.113Z,3.72
2022-11-24T15:16:03.809Z,2.55
2022-11-24T15:18:39.322Z,2.85
2022-11-24T15:21:07.826Z,2.58
2022-11-24T15:23:40.698Z,2.38
2022-11-24T15:26:30.737Z,1.77
2022-11-24T15:29:00.572Z,3.78
2022-11-24T15:31:29.135Z,2.97
2022-11-24T15:33:57.632Z,4.47
2022-11-24T15:36:25.985Z,3.20
2022-11-24T15:38:55.709Z,2.05
2022-11-24T15:41:29.422Z,1.75
2022-11-24T15:44:00.155Z,1.92
2022-11-24T15:46:29.470Z,1.83
2022-11-24T15:48:59.562Z,3.00
2022-11-24T15:51:29.132Z,2.28
2022-11-24T15:54:01.370Z,1.70
2022-11-24T15:56:33.282Z,1.77
2022-11-24T15:59:01.941Z,1.80
2022-11-24T16:01:35.085Z,1.60
2022-11-24T16:06:36.355Z,1.50
2022-11-24T16:09:06.081Z,1.52
2022-11-24T16:11:34.761Z,2.05
2022-11-24T16:14:03.259Z,1.73
2022-11-24T16:16:31.808Z,2.25
2022-11-24T16:19:00.337Z,3.50
2022-11-24T16:21:29.133Z,2.60
2022-11-24T16:23:57.560Z,3.45
2022-11-24T16:26:27.575Z,5.13
2022-11-24T16:28:55.925Z,7.93
2022-11-24T16:31:24.241Z,4.00
2022-11-24T16:33:52.860Z,2.95
2022-11-24T16:36:21.488Z,2.88
2022-11-24T16:38:50.164Z,3.20
2022-11-24T16:41:19.012Z,3.30
2022-11-24T16:43:49.398Z,2.95
2022-11-24T16:46:20.341Z,2.15
2022-11-24T16:48:50.596Z,2.95
2022-11-24T16:51:20.553Z,2.95
2022-11-24T16:53:49.370Z,2.55
2022-11-24T16:56:18.851Z,2.28
2022-11-24T16:58:49.049Z,2.20
2022-11-24T17:01:17.428Z,2.50
2022-11-24T17:03:45.805Z,2.45
2022-11-24T17:06:17.428Z,2.67
2022-11-24T17:08:47.121Z,2.00
2022-11-24T17:11:17.342Z,3.90
2022-11-24T17:13:47.373Z,2.78
2022-11-24T17:16:19.492Z,2.40
2022-11-24T17:18:48.023Z,2.00
2022-11-24T17:21:19.376Z,1.90
2022-11-24T17:23:48.102Z,2.28
2022-11-24T17:26:18.887Z,2.40
2022-11-24T17:28:47.661Z,1.75
2022-11-24T17:31:22.289Z,2.42
2022-11-24T17:33:52.038Z,2.78
2022-11-24T17:36:21.169Z,3.45
2022-11-24T17:38:50.375Z,3.63
2022-11-24T17:41:19.342Z,3.95
2022-11-24T17:43:50.408Z,3.33
2022-11-24T17:46:20.939Z,2.83
2022-11-24T17:48:49.772Z,3.22
2022-11-24T17:51:19.977Z,3.22
2022-11-24T17:53:50.542Z,3.95
2022-11-24T17:56:23.786Z,3.33
2022-11-24T18:01:24.908Z,3.50
2022-11-24T18:03:55.376Z,4.68
2022-11-24T18:06:25.410Z,4.90
2022-11-24T18:08:57.796Z,5.38
2022-11-24T18:11:31.326Z,5.47
2022-11-24T18:14:02.815Z,3.20
2022-11-24T18:16:34.665Z,2.97
2022-11-24T18:19:09.986Z,2.63
2022-11-24T18:21:40.039Z,2.72
2022-11-24T18:24:09.638Z,3.28
2022-11-24T18:26:38.034Z,3.75
2022-11-24T18:29:06.699Z,3.53
2022-11-24T18:31:36.742Z,5.45
2022-11-24T18:34:06.475Z,4.35
2022-11-24T18:36:35.753Z,3.70
2022-11-24T18:39:05.798Z,3.83
2022-11-24T18:41:34.191Z,10.63
2022-11-24T18:44:03.433Z,7.45
2022-11-24T18:46:31.744Z,4.82
2022-11-24T18:49:03.665Z,4.43
2022-11-24T18:51:32.086Z,4.80
2022-11-24T18:54:04.066Z,4.63
2022-11-24T18:56:32.469Z,4.20
2022-11-24T18:59:00.955Z,2.83
2022-11-24T19:01:32.666Z,3.88
2022-11-24T19:04:03.726Z,4.45
2022-11-24T19:06:34.018Z,3.67
2022-11-24T19:09:04.542Z,3.80
2022-11-24T19:11:35.549Z,4.60
2022-11-24T19:14:04.958Z,4.65
2022-11-24T19:16:34.267Z,4.15
2022-11-24T19:19:05.337Z,3.80
2022-11-24T19:21:35.518Z,3.85
2022-11-24T19:24:05.671Z,4.32
2022-11-24T19:26:36.276Z,4.28
2022-11-24T19:29:08.222Z,3.65
2022-11-24T19:31:38.532Z,6.20
2022-11-24T19:34:08.952Z,4.93
2022-11-24T19:36:37.694Z,3.83
2022-11-24T19:39:05.998Z,7.22
2022-11-24T19:41:35.300Z,8.35
2022-11-24T19:44:03.665Z,5.47
2022-11-24T19:46:31.979Z,3.55
2022-11-24T19:49:02.863Z,5.25
2022-11-24T19:51:34.295Z,5.03
2022-11-24T19:54:02.775Z,4.15
2022-11-24T19:56:33.530Z,4.25
2022-11-24T19:59:02.909Z,4.10
2022-11-24T20:01:33.816Z,4.45
2022-11-24T20:04:04.625Z,3.97
2022-11-24T20:06:37.262Z,4.05
2022-11-24T20:09:08.412Z,3.92
2022-11-24T20:11:37.373Z,3.90
2022-11-24T20:14:07.383Z,4.93
2022-11-24T20:16:37.034Z,4.90
2022-11-24T20:19:07.616Z,4.90
2022-11-24T20:21:41.597Z,4.78
2022-11-24T20:24:14.831Z,5.00
2022-11-24T20:26:46.949Z,4.85
2022-11-24T20:29:17.450Z,5.85
2022-11-24T20:31:48.935Z,6.53
2022-11-24T20:34:18.076Z,5.68
2022-11-24T20:36:49.298Z,5.53
2022-11-24T20:39:21.715Z,5.85
2022-11-24T20:41:50.253Z,5.97
2022-11-24T20:44:22.231Z,6.25
2022-11-24T20:46:51.198Z,5.97
2022-11-24T20:49:23.288Z,7.15
2022-11-24T20:51:57.587Z,6.50
2022-11-24T20:54:26.301Z,6.05
2022-11-24T20:56:54.828Z,4.53
2022-11-24T20:59:25.653Z,4.82
2022-11-24T21:01:55.597Z,4.80
2022-11-24T21:04:26.618Z,4.03
2022-11-24T21:06:59.890Z,4.28
2022-11-24T21:11:58.541Z,7.07
2022-11-24T21:14:33.872Z,8.45
2022-11-24T21:17:03.543Z,5.47
2022-11-24T21:19:31.880Z,4.10
2022-11-24T21:22:01.591Z,10.40
2022-11-24T21:24:31.045Z,5.40
2022-11-24T21:27:00.912Z,5.32
2022-11-24T21:29:29.541Z,9.93
2022-11-24T21:31:58.384Z,10.35
2022-11-24T21:34:27.048Z,7.20
2022-11-24T21:36:55.361Z,5.60
2022-11-24T21:39:26.071Z,4.93
2022-11-24T21:41:55.456Z,6.75
2022-11-24T21:44:24.089Z,7.80
2022-11-24T21:46:55.858Z,4.50
2022-11-24T21:49:24.814Z,4.70
2022-11-24T21:51:56.009Z,6.95
2022-11-24T21:54:26.155Z,5.18
2022-11-24T21:56:55.905Z,5.95
2022-11-24T21:59:24.669Z,4.75
2022-11-24T22:01:54.008Z,5.15
2022-11-24T22:04:22.701Z,5.10
2022-11-24T22:06:53.477Z,5.55
2022-11-24T22:09:22.776Z,7.13
2022-11-24T22:11:54.820Z,8.70
2022-11-24T22:14:23.353Z,5.18
2022-11-24T22:16:51.800Z,4.93
2022-11-24T22:19:23.053Z,5.30
2022-11-24T22:21:53.219Z,4.47
2022-11-24T22:24:35.963Z,4.90
2022-11-24T22:27:07.448Z,5.43
2022-11-24T22:29:37.145Z,5.28
2022-11-24T22:32:05.964Z,5.07
2022-11-24T22:34:34.530Z,5.15
2022-11-24T22:37:03.345Z,5.07
2022-11-24T22:39:31.804Z,4.57
2022-11-24T22:42:00.273Z,5.45
2022-11-24T22:44:30.309Z,4.38
2022-11-24T22:47:00.351Z,4.95
2022-11-24T22:49:29.519Z,5.00
2022-11-24T22:51:59.858Z,5.18
2022-11-24T22:54:28.162Z,4.88
2022-11-24T22:56:56.472Z,6.25
2022-11-24T22:59:24.896Z,5.10
2022-11-24T23:01:57.288Z,5.03
2022-11-24T23:04:26.138Z,4.67
2022-11-24T23:06:54.992Z,5.30
2022-11-24T23:09:23.403Z,5.32
2022-11-24T23:11:51.656Z,5.50
2022-11-24T23:14:20.932Z,5.53
2022-11-24T23:16:49.419Z,5.75
2022-11-24T23:19:23.026Z,5.18
2022-11-24T23:21:51.945Z,5.60
2022-11-24T23:24:20.637Z,5.75
2022-11-24T23:26:49.309Z,5.22
2022-11-24T23:29:18.883Z,5.50
2022-11-24T23:31:47.280Z,6.05
2022-11-24T23:34:16.056Z,6.20
2022-11-24T23:36:48.098Z,5.15
2022-11-24T23:39:17.035Z,5.50
2022-11-24T23:41:45.421Z,5.70
2022-11-24T23:44:13.879Z,5.05
2022-11-24T23:46:42.395Z,5.80
2022-11-24T23:49:11.187Z,5.00
2022-11-24T23:51:42.082Z,5.85
2022-11-24T23:54:12.329Z,5.10
2022-11-24T23:56:40.641Z,5.95
2022-11-24T23:59:13.237Z,4.95
